Time;durP1;ratioP1;P1;durP2;ratioP2;P2;SDS_P1;SDS_P2;PMS_P1;PMS_P2;Temp;Humidity;BMP_temperature;BMP_pressure;BME280_temperature;BME280_humidity;BME280_pressure;Samples;Min_cycle;Max_cycle;Signal;HPM_P1;HPM_P2
2021/04/29 00:01:10;;;;;;;11.67;8.93;;;9.30;73.40;;;;;;5051341;28;20657;-89
2021/04/29 00:03:36;;;;;;;14.60;9.47;;;9.30;73.30;;;;;;5051123;28;20318;-89
2021/04/29 00:06:03;;;;;;;17.03;10.87;;;9.30;71.10;;;;;;5051346;28;20180;-89
2021/04/29 00:08:29;;;;;;;16.77;10.37;;;9.50;71.70;;;;;;5053460;28;20215;-89
2021/04/29 00:10:55;;;;;;;15.67;10.90;;;9.30;72.50;;;;;;5056357;28;20176;-89
2021/04/29 00:13:21;;;;;;;17.80;10.43;;;9.30;73.00;;;;;;5055306;28;20192;-88
2021/04/29 00:15:48;;;;;;;11.13;9.10;;;9.30;73.00;;;;;;5055037;28;20176;-88
2021/04/29 00:18:15;;;;;;;15.10;9.43;;;9.40;71.60;;;;;;5055814;28;20177;-89
2021/04/29 00:20:40;;;;;;;13.30;9.80;;;9.30;72.30;;;;;;5056507;28;20366;-89
2021/04/29 00:23:06;;;;;;;13.20;9.03;;;9.30;72.10;;;;;;5054833;28;20316;-89
2021/04/29 00:25:32;;;;;;;14.53;10.07;;;9.30;72.80;;;;;;5054888;28;20183;-89
2021/04/29 00:27:57;;;;;;;12.80;10.00;;;9.20;74.30;;;;;;5054887;28;20262;-89
2021/04/29 00:30:23;;;;;;;12.80;9.50;;;9.10;74.10;;;;;;5056318;28;20178;-89
2021/04/29 00:32:48;;;;;;;16.47;9.63;;;9.10;74.20;;;;;;5054632;28;20202;-89
2021/04/29 00:35:14;;;;;;;19.70;8.73;;;9.00;73.90;;;;;;5055944;28;20172;-89
2021/04/29 00:37:40;;;;;;;13.57;8.97;;;9.00;73.40;;;;;;5054991;28;20183;-89
2021/04/29 00:40:07;;;;;;;17.33;9.70;;;9.00;73.70;;;;;;5054720;28;20172;-89
2021/04/29 00:42:39;;;;;;;17.97;9.63;;;9.00;73.70;;;;;;5055561;28;20198;-89
2021/04/29 00:45:10;;;;;;;13.73;9.27;;;9.00;73.50;;;;;;5054525;28;20176;-89
2021/04/29 00:47:36;;;;;;;18.80;9.20;;;8.90;73.80;;;;;;5054478;28;20234;-89
2021/04/29 00:50:05;;;;;;;14.20;9.87;;;8.90;73.70;;;;;;5055729;28;20662;-89
2021/04/29 00:52:31;;;;;;;17.93;10.70;;;8.80;74.20;;;;;;5055431;28;20172;-89
2021/04/29 00:54:57;;;;;;;14.33;9.97;;;8.80;74.80;;;;;;5055821;28;20176;-89
2021/04/29 00:57:24;;;;;;;13.67;9.87;;;8.70;75.60;;;;;;5054505;28;20550;-89
2021/04/29 00:59:54;;;;;;;15.73;9.77;;;8.60;76.60;;;;;;5055019;28;20180;-89
2021/04/29 01:02:22;;;;;;;14.60;8.80;;;8.50;76.50;;;;;;5054061;28;20200;-89
2021/04/29 01:04:56;;;;;;;17.33;10.20;;;8.50;75.60;;;;;;5054324;28;20184;-89
2021/04/29 01:07:25;;;;;;;21.90;11.37;;;8.60;74.90;;;;;;5055346;28;20164;-89
2021/04/29 01:10:07;;;;;;;14.10;8.73;;;8.60;74.80;;;;;;5053909;28;20172;-89
2021/04/29 01:12:39;;;;;;;16.00;9.17;;;8.70;73.70;;;;;;5054436;28;20573;-89
2021/04/29 01:15:06;;;;;;;12.27;9.03;;;8.70;73.80;;;;;;5053985;28;20236;-89
2021/04/29 01:17:34;;;;;;;18.53;9.77;;;8.70;73.70;;;;;;5055034;28;20180;-89
2021/04/29 01:20:29;;;;;;;11.67;9.00;;;8.60;73.90;;;;;;5054043;28;20180;-89
2021/04/29 01:23:25;;;;;;;12.47;8.73;;;8.60;74.00;;;;;;5052310;28;20223;-89
2021/04/29 01:25:57;;;;;;;12.17;8.90;;;8.60;73.90;;;;;;5055214;28;20171;-89
2021/04/29 01:28:23;;;;;;;17.50;9.00;;;8.50;74.50;;;;;;5053750;28;20176;-89
2021/04/29 01:30:49;;;;;;;13.17;8.50;;;8.50;74.40;;;;;;5053584;28;20176;-89
2021/04/29 01:33:15;;;;;;;17.40;9.67;;;8.40;74.70;;;;;;5055070;28;20201;-89
2021/04/29 01:35:41;;;;;;;14.87;9.07;;;8.30;75.30;;;;;;5053622;28;20207;-89
2021/04/29 01:38:08;;;;;;;17.40;9.77;;;8.30;75.20;;;;;;5053453;28;20615;-89
2021/04/29 01:40:34;;;;;;;10.93;9.13;;;8.30;75.40;;;;;;5054637;28;20180;-89
2021/04/29 01:42:59;;;;;;;13.33;9.10;;;8.20;75.10;;;;;;5053319;28;20234;-89
2021/04/29 01:45:25;;;;;;;13.77;9.47;;;8.30;75.10;;;;;;5053402;28;20183;-89
2021/04/29 01:47:51;;;;;;;14.13;9.07;;;8.30;75.00;;;;;;5054565;28;20172;-88
2021/04/29 01:50:17;;;;;;;13.37;9.43;;;8.30;74.90;;;;;;5053359;28;20182;-89
2021/04/29 01:52:43;;;;;;;14.70;9.20;;;8.20;75.50;;;;;;5053208;28;20615;-88
2021/04/29 01:55:10;;;;;;;15.70;9.80;;;8.20;75.50;;;;;;5054430;28;20168;-89
2021/04/29 01:57:35;;;;;;;12.03;9.87;;;8.10;75.80;;;;;;5053226;28;20180;-89
2021/04/29 02:00:05;;;;;;;19.00;10.80;;;8.00;76.20;;;;;;5053203;28;20525;-89
2021/04/29 02:02:30;;;;;;;14.67;9.93;;;7.90;76.60;;;;;;5052771;28;20248;-88
2021/04/29 02:04:56;;;;;;;14.80;10.67;;;7.90;76.80;;;;;;5053088;28;20183;-89
2021/04/29 02:07:22;;;;;;;13.80;9.47;;;7.90;76.90;;;;;;5054140;28;20263;-89
2021/04/29 02:09:48;;;;;;;15.23;10.33;;;7.80;77.00;;;;;;5052857;28;20545;-89
2021/04/29 02:12:14;;;;;;;14.20;9.77;;;7.80;76.90;;;;;;5052796;28;20183;-89
2021/04/29 02:14:59;;;;;;;11.80;9.73;;;7.80;76.90;;;;;;5052631;28;20574;-89
2021/04/29 02:17:38;;;;;;;13.27;9.73;;;7.80;77.20;;;;;;5052744;28;20174;-89
2021/04/29 02:20:06;;;;;;;14.37;10.13;;;7.80;77.30;;;;;;5053502;28;20225;-89
2021/04/29 02:22:35;;;;;;;18.67;11.23;;;7.70;77.90;;;;;;5053681;28;20194;-89
2021/04/29 02:25:03;;;;;;;17.43;10.80;;;7.50;78.90;;;;;;5052960;28;20183;-89
2021/04/29 02:27:28;;;;;;;17.57;11.67;;;7.40;79.40;;;;;;5052550;28;20217;-89
2021/04/29 02:29:54;;;;;;;19.20;11.50;;;7.30;79.90;;;;;;5053454;28;20168;-89
2021/04/29 02:32:20;;;;;;;19.53;11.47;;;7.30;80.20;;;;;;5052500;28;20178;-89
2021/04/29 02:34:46;;;;;;;15.17;12.10;;;7.20;80.40;;;;;;5052393;28;20214;-89
2021/04/29 02:37:13;;;;;;;13.00;10.83;;;7.10;80.50;;;;;;5052379;28;20182;-88
2021/04/29 02:39:40;;;;;;;13.80;11.03;;;7.10;80.70;;;;;;5053609;28;20699;-89
2021/04/29 02:42:06;;;;;;;16.20;11.13;;;7.10;80.70;;;;;;5053804;28;20558;-89
2021/04/29 02:44:33;;;;;;;18.43;11.33;;;7.00;80.70;;;;;;5052390;28;20203;-89
2021/04/29 02:47:00;;;;;;;16.70;11.83;;;7.00;80.90;;;;;;5052195;28;20267;-89
2021/04/29 02:49:26;;;;;;;16.23;11.13;;;6.90;81.10;;;;;;5052204;28;20546;-89
2021/04/29 02:51:52;;;;;;;15.17;12.30;;;6.80;81.20;;;;;;5052220;28;20208;-89
2021/04/29 02:54:19;;;;;;;20.67;12.10;;;6.80;81.40;;;;;;5051991;28;20196;-89
2021/04/29 02:56:45;;;;;;;15.27;11.27;;;6.80;81.50;;;;;;5052092;28;20287;-89
2021/04/29 02:59:12;;;;;;;18.20;12.63;;;6.80;81.60;;;;;;5052116;28;20207;-89
2021/04/29 03:01:39;;;;;;;17.40;11.27;;;6.80;81.90;;;;;;5051882;28;20200;-89
2021/04/29 03:04:04;;;;;;;16.27;12.80;;;6.80;82.00;;;;;;5051727;28;20211;-89
2021/04/29 03:06:31;;;;;;;18.30;11.97;;;6.80;82.10;;;;;;5051948;28;20686;-89
2021/04/29 03:08:56;;;;;;;14.90;11.57;;;6.90;82.00;;;;;;5052182;28;20177;-89
2021/04/29 03:11:22;;;;;;;16.20;11.77;;;7.00;81.90;;;;;;5051929;28;20181;-88
2021/04/29 03:13:48;;;;;;;15.87;12.17;;;7.00;81.90;;;;;;5051738;28;20287;-88
2021/04/29 03:16:14;;;;;;;20.13;11.57;;;7.00;82.00;;;;;;5053093;28;20213;-88
2021/04/29 03:18:39;;;;;;;20.13;12.47;;;7.00;81.90;;;;;;5052969;28;20167;-89
2021/04/29 03:21:05;;;;;;;14.40;12.07;;;7.10;81.70;;;;;;5052905;28;20168;-89
2021/04/29 03:23:32;;;;;;;14.87;11.43;;;7.10;81.70;;;;;;5051528;28;20621;-89
2021/04/29 03:25:58;;;;;;;20.50;12.67;;;7.20;81.60;;;;;;5051632;28;20184;-89
2021/04/29 03:28:24;;;;;;;17.27;12.27;;;7.20;81.70;;;;;;5051661;28;20174;-89
2021/04/29 03:30:50;;;;;;;13.70;11.23;;;7.20;82.00;;;;;;5051590;28;20255;-89
2021/04/29 03:33:15;;;;;;;21.30;12.63;;;7.20;82.10;;;;;;5052068;28;20206;-88
2021/04/29 03:35:41;;;;;;;17.03;11.77;;;7.30;82.00;;;;;;5051575;28;20203;-88
2021/04/29 03:38:07;;;;;;;14.97;12.70;;;7.30;82.10;;;;;;5051593;28;20235;-89
2021/04/29 03:40:34;;;;;;;17.90;12.10;;;7.40;82.10;;;;;;5051670;28;20269;-88
2021/04/29 03:43:00;;;;;;;19.40;13.07;;;7.40;82.40;;;;;;5052987;28;20238;-88
2021/04/29 03:45:25;;;;;;;17.57;12.33;;;7.50;82.10;;;;;;5056002;28;20219;-89
2021/04/29 03:47:51;;;;;;;18.33;12.77;;;7.50;81.90;;;;;;5056823;28;20252;-89
2021/04/29 03:50:17;;;;;;;20.43;11.93;;;7.60;81.90;;;;;;5057090;28;20634;-89
2021/04/29 03:52:43;;;;;;;21.50;13.60;;;7.70;82.00;;;;;;5056648;28;20191;-89
2021/04/29 03:55:09;;;;;;;18.40;13.37;;;7.70;81.90;;;;;;5055503;28;20182;-89
2021/04/29 03:57:35;;;;;;;17.10;12.90;;;7.80;81.80;;;;;;5055391;28;20176;-89
2021/04/29 04:00:00;;;;;;;16.90;12.40;;;7.80;81.60;;;;;;5055301;28;20540;-89
2021/04/29 04:02:26;;;;;;;14.93;12.63;;;7.80;81.50;;;;;;5055048;28;20218;-89
2021/04/29 04:04:52;;;;;;;17.17;12.80;;;7.90;81.40;;;;;;5073874;22;20239;-86
2021/04/29 04:07:18;;;;;;;23.17;13.37;;;8.00;80.90;;;;;;5056921;28;20167;-85
2021/04/29 04:09:44;;;;;;;16.17;12.30;;;8.00;80.50;;;;;;5056598;28;20179;-85
2021/04/29 04:12:10;;;;;;;14.07;11.53;;;8.10;80.30;;;;;;5056491;28;20526;-85
2021/04/29 04:14:35;;;;;;;18.37;12.83;;;8.10;80.10;;;;;;5055039;28;20219;-85
2021/04/29 04:17:01;;;;;;;16.00;13.07;;;8.10;80.00;;;;;;5056322;28;20247;-85
2021/04/29 04:19:27;;;;;;;21.00;12.70;;;8.20;79.80;;;;;;5055114;28;20180;-85
2021/04/29 04:21:53;;;;;;;20.43;12.53;;;8.20;79.90;;;;;;5054865;28;20677;-85
2021/04/29 04:24:19;;;;;;;17.23;13.30;;;8.20;80.60;;;;;;5056121;28;20252;-85
2021/04/29 04:26:45;;;;;;;18.97;11.70;;;8.10;81.10;;;;;;5056075;28;20183;-85
2021/04/29 04:29:10;;;;;;;18.60;13.27;;;8.00;81.50;;;;;;5056074;28;20180;-85
2021/04/29 04:31:36;;;;;;;18.30;13.17;;;8.00;81.20;;;;;;5056140;28;20186;-85
2021/04/29 04:34:03;;;;;;;19.43;12.83;;;8.20;80.30;;;;;;5056868;28;20195;-85
2021/04/29 04:36:29;;;;;;;13.70;10.70;;;8.30;79.70;;;;;;5057357;28;20179;-86
2021/04/29 04:38:54;;;;;;;19.10;12.17;;;8.30;79.40;;;;;;5056942;28;20637;-86
2021/04/29 04:41:20;;;;;;;15.00;11.63;;;8.30;79.30;;;;;;5055687;28;20254;-85
2021/04/29 04:43:45;;;;;;;15.93;11.40;;;8.30;79.10;;;;;;5055399;28;20202;-85
2021/04/29 04:46:11;;;;;;;16.33;12.83;;;8.40;79.10;;;;;;5056060;28;20184;-85
2021/04/29 04:48:37;;;;;;;18.83;12.43;;;8.50;78.80;;;;;;5055969;28;20176;-85
2021/04/29 04:51:02;;;;;;;16.93;13.00;;;8.50;78.70;;;;;;5056103;28;20183;-86
2021/04/29 04:53:28;;;;;;;20.47;13.13;;;8.50;79.00;;;;;;5055809;28;20199;-86
2021/04/29 04:55:54;;;;;;;17.90;12.57;;;8.50;79.00;;;;;;5054573;28;20179;-86
2021/04/29 04:58:20;;;;;;;19.90;13.77;;;8.50;79.30;;;;;;5056178;28;20168;-86
2021/04/29 05:00:48;;;;;;;17.00;12.60;;;8.50;79.40;;;;;;5054279;28;20598;-86
2021/04/29 05:03:15;;;;;;;18.97;12.87;;;8.50;79.70;;;;;;5053834;28;20219;-86
2021/04/29 05:05:43;;;;;;;14.60;12.63;;;8.50;80.00;;;;;;5054283;28;20168;-86
2021/04/29 05:08:08;;;;;;;18.43;14.03;;;8.40;80.40;;;;;;5055424;28;20168;-86
2021/04/29 05:10:36;;;;;;;19.80;14.07;;;8.40;80.60;;;;;;5054262;28;20234;-86
2021/04/29 05:13:03;;;;;;;23.97;14.57;;;8.40;81.00;;;;;;5055192;28;20192;-85
2021/04/29 05:15:35;;;;;;;15.03;12.67;;;8.40;80.80;;;;;;5055643;28;20179;-85
2021/04/29 05:18:01;;;;;;;18.33;13.13;;;8.60;79.00;;;;;;5054095;28;20194;-85
2021/04/29 05:20:27;;;;;;;19.27;13.80;;;8.60;78.70;;;;;;5055443;28;20259;-85
2021/04/29 05:22:53;;;;;;;20.47;13.20;;;8.70;78.60;;;;;;5055535;28;20223;-86
2021/04/29 05:25:20;;;;;;;18.93;13.60;;;8.70;78.40;;;;;;5054629;28;20595;-85
2021/04/29 05:27:46;;;;;;;18.33;12.90;;;8.80;77.60;;;;;;5054083;28;20176;-86
2021/04/29 05:30:12;;;;;;;17.87;13.67;;;8.90;77.50;;;;;;5054216;28;20172;-86
2021/04/29 05:32:38;;;;;;;24.87;13.63;;;8.80;77.60;;;;;;5054104;28;20652;-85
2021/04/29 05:35:04;;;;;;;17.87;13.50;;;8.90;77.70;;;;;;5053977;28;20341;-86
2021/04/29 05:37:30;;;;;;;25.17;13.97;;;8.90;78.00;;;;;;5055340;28;20549;-85
2021/04/29 05:39:56;;;;;;;16.83;13.23;;;8.90;78.10;;;;;;5055338;28;20168;-86
2021/04/29 05:42:22;;;;;;;17.97;13.83;;;8.90;77.70;;;;;;5053638;28;20676;-86
2021/04/29 05:44:49;;;;;;;19.53;13.50;;;8.90;78.00;;;;;;5054055;28;20200;-85
2021/04/29 05:47:14;;;;;;;17.67;13.83;;;8.90;78.20;;;;;;5053617;28;20273;-85
2021/04/29 05:49:42;;;;;;;20.03;14.10;;;9.00;78.00;;;;;;5054924;28;20645;-85
2021/04/29 05:52:08;;;;;;;21.70;14.47;;;9.00;78.20;;;;;;5053934;28;20180;-86
2021/04/29 05:54:35;;;;;;;20.10;14.57;;;9.00;78.40;;;;;;5054949;28;20194;-86
2021/04/29 05:57:01;;;;;;;18.37;14.97;;;9.00;78.60;;;;;;5054839;28;20183;-85
2021/04/29 05:59:27;;;;;;;20.27;14.10;;;9.10;78.70;;;;;;5055064;28;20180;-85
2021/04/29 06:01:53;;;;;;;19.33;14.33;;;9.10;78.30;;;;;;5054793;28;20209;-85
2021/04/29 06:04:18;;;;;;;25.07;14.60;;;9.10;78.60;;;;;;5054338;28;20210;-85
2021/04/29 06:06:45;;;;;;;18.93;14.97;;;9.20;78.40;;;;;;5053479;28;20575;-85
2021/04/29 06:09:11;;;;;;;23.03;14.13;;;9.20;78.80;;;;;;5053068;28;20267;-85
2021/04/29 06:11:37;;;;;;;18.33;14.60;;;9.20;78.40;;;;;;5052951;28;20255;-86
2021/04/29 06:14:02;;;;;;;19.77;15.27;;;9.30;78.50;;;;;;5054333;28;20192;-85
2021/04/29 06:16:29;;;;;;;22.47;16.00;;;9.30;78.90;;;;;;5054240;28;20180;-86
2021/04/29 06:18:55;;;;;;;18.47;14.40;;;9.30;79.10;;;;;;5053979;28;20168;-85
2021/04/29 06:21:20;;;;;;;21.13;15.47;;;9.40;78.90;;;;;;5053649;28;20176;-86
2021/04/29 06:23:46;;;;;;;18.77;15.13;;;9.40;79.10;;;;;;5052521;28;20198;-85
2021/04/29 06:26:12;;;;;;;21.83;15.37;;;9.50;79.60;;;;;;5052431;28;20257;-86
2021/04/29 06:28:37;;;;;;;18.40;15.60;;;9.50;79.20;;;;;;5053830;28;20172;-86
2021/04/29 06:31:03;;;;;;;17.53;15.07;;;9.50;79.10;;;;;;5053715;28;20232;-86
2021/04/29 06:33:29;;;;;;;19.10;14.87;;;9.60;78.40;;;;;;5052382;28;20218;-86
2021/04/29 06:35:55;;;;;;;29.17;14.47;;;9.60;78.70;;;;;;5053876;28;20172;-85
2021/04/29 06:38:21;;;;;;;19.50;14.03;;;9.60;78.30;;;;;;5052219;28;20646;-86
2021/04/29 06:40:47;;;;;;;25.60;14.53;;;9.70;78.10;;;;;;5052379;28;20182;-85
2021/04/29 06:43:13;;;;;;;20.97;14.57;;;9.70;79.00;;;;;;5052268;28;20306;-86
2021/04/29 06:45:42;;;;;;;25.97;16.33;;;9.80;79.40;;;;;;5053454;28;20212;-86
2021/04/29 06:48:08;;;;;;;20.53;15.40;;;9.70;80.00;;;;;;5051997;28;20730;-86
2021/04/29 06:50:35;;;;;;;24.47;17.97;;;9.80;79.90;;;;;;5052169;28;20503;-85
2021/04/29 06:53:01;;;;;;;19.60;15.50;;;9.80;80.10;;;;;;5053309;28;20539;-85
2021/04/29 06:55:27;;;;;;;17.57;15.50;;;9.90;80.30;;;;;;5053443;28;20186;-86
2021/04/29 06:57:52;;;;;;;20.33;14.47;;;9.90;80.20;;;;;;5052135;28;20176;-86
2021/04/29 07:00:19;;;;;;;19.43;13.83;;;9.90;79.80;;;;;;5053207;28;20203;-86
2021/04/29 07:02:45;;;;;;;22.73;15.60;;;10.00;78.80;;;;;;5053079;28;20203;-85
2021/04/29 07:05:11;;;;;;;18.20;14.30;;;10.00;79.10;;;;;;5052394;28;20190;-86
2021/04/29 07:07:37;;;;;;;17.57;14.50;;;10.10;78.60;;;;;;5052225;28;20168;-86
2021/04/29 07:10:03;;;;;;;22.53;15.63;;;10.10;78.60;;;;;;5053106;28;20247;-86
2021/04/29 07:12:29;;;;;;;17.33;14.87;;;10.10;78.60;;;;;;5051828;28;20259;-86
2021/04/29 07:14:55;;;;;;;17.83;14.33;;;10.10;79.10;;;;;;5051805;28;20290;-86
2021/04/29 07:17:20;;;;;;;20.03;14.80;;;10.20;78.50;;;;;;5052832;28;20172;-86
2021/04/29 07:19:46;;;;;;;18.37;14.20;;;10.10;79.20;;;;;;5051750;28;20179;-86
2021/04/29 07:22:12;;;;;;;24.80;14.23;;;10.10;78.30;;;;;;5051706;28;20261;-86
2021/04/29 07:24:37;;;;;;;17.87;14.40;;;10.10;78.80;;;;;;5051885;28;20219;-84
2021/04/29 07:27:04;;;;;;;18.80;14.93;;;10.10;78.60;;;;;;5052928;28;20168;-85
2021/04/29 07:29:32;;;;;;;19.60;16.07;;;10.10;79.30;;;;;;5053011;28;20170;-85
2021/04/29 07:31:57;;;;;;;18.50;14.67;;;10.10;80.00;;;;;;5053608;28;20504;-85
2021/04/29 07:34:23;;;;;;;19.13;15.73;;;10.20;79.90;;;;;;5051632;28;20192;-85
2021/04/29 07:36:48;;;;;;;20.07;15.33;;;10.20;80.20;;;;;;5051617;28;20175;-85
2021/04/29 07:39:14;;;;;;;21.27;16.80;;;10.20;80.00;;;;;;5052930;28;20180;-85
2021/04/29 07:41:40;;;;;;;19.97;15.53;;;10.20;80.00;;;;;;5051487;28;20629;-84
2021/04/29 07:44:06;;;;;;;23.67;16.30;;;10.20;79.50;;;;;;5052719;28;20237;-85
2021/04/29 07:46:32;;;;;;;18.10;15.97;;;10.20;80.40;;;;;;5052807;28;20183;-85
2021/04/29 07:48:59;;;;;;;24.17;17.70;;;10.10;80.10;;;;;;5052793;28;20160;-85
2021/04/29 07:51:25;;;;;;;22.07;17.43;;;10.10;80.70;;;;;;5051459;28;20183;-85
2021/04/29 07:53:50;;;;;;;24.80;17.50;;;10.10;81.20;;;;;;5051363;28;20245;-85
2021/04/29 07:56:16;;;;;;;19.63;16.10;;;10.10;80.70;;;;;;5051625;28;20654;-85
2021/04/29 07:58:42;;;;;;;19.40;15.70;;;10.00;80.70;;;;;;5053131;28;20183;-84
2021/04/29 08:01:08;;;;;;;18.83;16.90;;;10.00;80.80;;;;;;5052137;28;20233;-85
2021/04/29 08:03:33;;;;;;;25.50;17.53;;;10.00;81.10;;;;;;5053556;28;20242;-85
2021/04/29 08:05:59;;;;;;;26.00;17.27;;;10.00;81.00;;;;;;5053840;28;20172;-86
2021/04/29 08:08:25;;;;;;;23.93;19.20;;;10.00;81.30;;;;;;5054527;28;20541;-85
2021/04/29 08:10:50;;;;;;;25.50;18.77;;;10.00;82.40;;;;;;5051991;28;20173;-86
2021/04/29 08:13:16;;;;;;;26.67;19.33;;;10.00;81.50;;;;;;5051830;28;20201;-86
2021/04/29 08:15:43;;;;;;;25.33;18.77;;;10.00;82.10;;;;;;5053129;28;20181;-85
2021/04/29 08:18:09;;;;;;;24.87;18.70;;;10.00;81.50;;;;;;5053259;28;20191;-86
2021/04/29 08:20:37;;;;;;;25.93;17.67;;;10.00;81.80;;;;;;5053494;28;20173;-86
2021/04/29 08:23:03;;;;;;;28.43;18.20;;;10.00;81.70;;;;;;5053275;28;20208;-85
2021/04/29 08:25:28;;;;;;;23.87;18.47;;;9.90;81.70;;;;;;5053458;28;20243;-85
2021/04/29 08:27:54;;;;;;;21.13;18.70;;;10.00;82.00;;;;;;5052961;28;20164;-86
2021/04/29 08:30:26;;;;;;;23.60;18.80;;;9.90;81.50;;;;;;5057112;28;20542;-85
2021/04/29 08:32:52;;;;;;;23.67;18.03;;;9.90;81.70;;;;;;5056734;28;20598;-85
2021/04/29 08:35:19;;;;;;;23.93;19.03;;;9.80;81.50;;;;;;5055319;28;20225;-85
2021/04/29 08:37:45;;;;;;;23.70;19.20;;;9.80;81.80;;;;;;5055559;28;20180;-86
2021/04/29 08:40:10;;;;;;;22.77;19.73;;;9.80;82.20;;;;;;5056703;28;20229;-85
2021/04/29 08:42:36;;;;;;;24.57;19.33;;;9.80;82.20;;;;;;5054926;28;20196;-85
2021/04/29 08:45:04;;;;;;;25.70;19.00;;;9.80;81.90;;;;;;5055743;28;20202;-85
2021/04/29 08:47:30;;;;;;;25.73;20.13;;;9.80;82.20;;;;;;5055846;28;20175;-85
2021/04/29 08:49:56;;;;;;;29.30;20.93;;;9.70;82.50;;;;;;5054924;28;20172;-85
2021/04/29 08:52:21;;;;;;;27.10;21.17;;;9.70;83.00;;;;;;5054596;28;20172;-85
2021/04/29 08:54:49;;;;;;;26.57;19.47;;;9.70;82.90;;;;;;5054388;28;20665;-86
2021/04/29 08:57:14;;;;;;;23.20;18.57;;;9.70;82.40;;;;;;5054291;28;20182;-86
2021/04/29 08:59:40;;;;;;;24.43;21.13;;;9.70;82.70;;;;;;5055820;28;20251;-86
2021/04/29 09:02:06;;;;;;;26.40;20.23;;;9.70;82.70;;;;;;5054769;28;20199;-86
2021/04/29 09:04:40;;;;;;;23.60;19.50;;;9.60;83.00;;;;;;5055750;28;20257;-86
2021/04/29 09:07:18;;;;;;;24.27;19.17;;;9.60;82.60;;;;;;5054210;28;20174;-86
2021/04/29 09:09:45;;;;;;;25.73;21.00;;;9.60;82.60;;;;;;5055855;28;20605;-86
2021/04/29 09:12:12;;;;;;;25.23;20.33;;;9.60;82.90;;;;;;5053949;28;20553;-86
2021/04/29 09:14:41;;;;;;;27.13;21.33;;;9.60;83.30;;;;;;5055253;28;20211;-86
2021/04/29 09:17:07;;;;;;;26.07;21.57;;;9.60;83.10;;;;;;5053917;28;20176;-86
2021/04/29 09:19:36;;;;;;;28.23;21.97;;;9.60;83.00;;;;;;5053917;28;20706;-86
2021/04/29 09:22:04;;;;;;;24.97;21.57;;;9.60;83.50;;;;;;5055005;28;20641;-86
2021/04/29 09:24:40;;;;;;;27.83;21.30;;;9.60;83.70;;;;;;5055023;28;20193;-86
2021/04/29 09:27:19;;;;;;;29.03;22.43;;;9.60;83.40;;;;;;5053694;28;20160;-86
2021/04/29 09:29:49;;;;;;;24.33;20.60;;;9.70;83.30;;;;;;5053884;28;20214;-86
2021/04/29 09:32:22;;;;;;;25.40;20.80;;;9.60;83.40;;;;;;5053524;28;20176;-86
2021/04/29 09:34:48;;;;;;;28.13;22.97;;;9.50;83.50;;;;;;5054799;28;20697;-86
2021/04/29 09:37:13;;;;;;;28.33;22.73;;;9.60;84.10;;;;;;5053630;28;20172;-86
2021/04/29 09:39:39;;;;;;;31.63;23.27;;;9.60;83.60;;;;;;5052816;28;20180;-86
2021/04/29 09:42:05;;;;;;;25.87;22.10;;;9.60;83.70;;;;;;5052584;28;20275;-86
2021/04/29 09:44:35;;;;;;;26.87;22.37;;;9.60;83.70;;;;;;5054497;28;20192;-86
2021/04/29 09:47:02;;;;;;;27.13;23.37;;;9.60;83.80;;;;;;5053292;28;20641;-86
2021/04/29 09:49:33;;;;;;;26.43;23.27;;;9.70;83.80;;;;;;5053053;28;20187;-86
2021/04/29 09:52:01;;;;;;;25.67;23.00;;;9.80;84.00;;;;;;5054430;28;20168;-86
2021/04/29 09:54:28;;;;;;;29.50;22.03;;;9.70;83.80;;;;;;5052812;28;20205;-86
2021/04/29 09:56:56;;;;;;;28.57;20.57;;;9.70;83.60;;;;;;5052826;28;20211;-86
2021/04/29 09:59:21;;;;;;;26.90;22.80;;;9.70;83.50;;;;;;5052899;28;20177;-86
2021/04/29 10:01:47;;;;;;;28.83;23.77;;;9.70;83.70;;;;;;5052789;28;20203;-86
2021/04/29 10:04:13;;;;;;;28.63;23.87;;;9.80;84.00;;;;;;5052874;28;20219;-86
2021/04/29 10:06:39;;;;;;;33.90;24.23;;;9.70;84.10;;;;;;5052863;28;20168;-86
2021/04/29 10:09:05;;;;;;;28.00;23.83;;;9.70;84.20;;;;;;5054015;28;20166;-86
2021/04/29 10:11:31;;;;;;;31.60;25.03;;;9.70;84.40;;;;;;5052744;28;20176;-86
2021/04/29 10:14:00;;;;;;;34.03;25.13;;;9.70;84.80;;;;;;5054035;28;20195;-86
2021/04/29 10:16:29;;;;;;;31.23;27.10;;;9.60;84.70;;;;;;5053907;28;20164;-87
2021/04/29 10:18:55;;;;;;;31.77;27.60;;;9.70;85.30;;;;;;5052563;28;20179;-86
2021/04/29 10:21:22;;;;;;;30.90;25.80;;;9.60;85.50;;;;;;5053798;28;20171;-86
2021/04/29 10:23:48;;;;;;;34.47;24.60;;;9.60;85.50;;;;;;5053863;28;20205;-86
2021/04/29 10:26:28;;;;;;;28.17;24.30;;;9.60;85.40;;;;;;5054130;28;20175;-86
2021/04/29 10:29:06;;;;;;;28.17;24.63;;;9.50;85.60;;;;;;5053824;28;20153;-86
2021/04/29 10:31:34;;;;;;;29.27;24.77;;;9.50;85.70;;;;;;5052666;28;20263;-86
2021/04/29 10:34:00;;;;;;;31.80;24.87;;;9.50;85.80;;;;;;5053801;28;20184;-86
2021/04/29 10:36:46;;;;;;;34.07;25.53;;;9.50;86.20;;;;;;5052664;28;20179;-86
2021/04/29 10:39:21;;;;;;;35.43;27.27;;;9.50;86.60;;;;;;5052500;28;20522;-86
2021/04/29 10:41:49;;;;;;;31.33;26.93;;;9.50;87.40;;;;;;5052270;28;20182;-86
2021/04/29 10:44:18;;;;;;;35.30;27.77;;;9.50;87.70;;;;;;5053580;28;20241;-86
2021/04/29 10:46:48;;;;;;;32.67;26.83;;;9.40;87.70;;;;;;5053404;28;20175;-87
2021/04/29 10:49:16;;;;;;;29.43;23.60;;;9.40;88.50;;;;;;5052284;28;20167;-87
2021/04/29 10:51:44;;;;;;;31.97;24.67;;;9.30;87.50;;;;;;5053065;28;20164;-87
2021/04/29 10:54:16;;;;;;;33.30;25.83;;;9.20;88.20;;;;;;5052131;28;20306;-88
2021/04/29 10:56:57;;;;;;;39.13;28.90;;;9.20;88.40;;;;;;5053603;28;20180;-88
2021/04/29 10:59:23;;;;;;;36.87;28.47;;;9.20;88.90;;;;;;5052249;28;20160;-90
2021/04/29 11:01:49;;;;;;;38.60;28.37;;;9.20;89.40;;;;;;5052462;28;20176;-89
2021/04/29 11:04:20;;;;;;;36.60;29.33;;;9.20;89.40;;;;;;5052064;28;20243;-90
2021/04/29 11:06:49;;;;;;;36.43;29.50;;;9.20;90.00;;;;;;5053436;28;20159;-90
2021/04/29 11:09:25;;;;;;;36.37;30.20;;;9.20;90.00;;;;;;5052233;28;20179;-91
2021/04/29 11:12:01;;;;;;;35.00;28.93;;;9.20;90.10;;;;;;5052099;28;20174;-91
2021/04/29 11:14:37;;;;;;;36.20;30.67;;;9.20;90.10;;;;;;5051984;28;20200;-91
2021/04/29 11:17:03;;;;;;;39.30;30.47;;;9.20;90.20;;;;;;5052042;28;20205;-91
2021/04/29 11:19:40;;;;;;;36.93;31.07;;;9.20;90.30;;;;;;5051867;28;20260;-92
2021/04/29 11:22:10;;;;;;;40.77;32.53;;;9.20;90.60;;;;;;5051754;28;20325;-92
2021/04/29 11:24:42;;;;;;;37.70;32.30;;;9.30;91.20;;;;;;5051885;28;20195;-91
2021/04/29 11:27:28;;;;;;;36.07;29.73;;;9.20;90.70;;;;;;5052269;28;20160;-91
2021/04/29 11:30:01;;;;;;;36.13;30.40;;;9.20;90.80;;;;;;5052044;28;20645;-91
2021/04/29 11:32:28;;;;;;;36.40;30.60;;;9.20;91.00;;;;;;5052251;28;20527;-91
2021/04/29 11:34:54;;;;;;;38.20;30.87;;;9.20;90.80;;;;;;5052158;28;20195;-91
2021/04/29 11:37:21;;;;;;;36.03;29.47;;;9.20;90.80;;;;;;5051934;28;20594;-91
2021/04/29 11:39:57;;;;;;;36.80;30.90;;;9.30;91.10;;;;;;5052099;28;20176;-91
2021/04/29 11:42:30;;;;;;;40.63;32.83;;;9.30;91.10;;;;;;5051879;28;20195;-91
2021/04/29 11:45:11;;;;;;;40.03;32.60;;;9.30;91.20;;;;;;5052779;28;20187;-92
2021/04/29 11:47:53;;;;;;;41.83;31.60;;;9.30;91.50;;;;;;5052650;28;20168;-91
2021/04/29 11:50:25;;;;;;;36.93;31.97;;;9.20;91.10;;;;;;5052363;28;20298;-91
2021/04/29 11:53:14;;;;;;;40.23;33.30;;;9.20;91.40;;;;;;5052115;28;20172;-91
2021/04/29 11:55:42;;;;;;;43.57;32.97;;;9.30;91.80;;;;;;5053084;28;20213;-91
2021/04/29 11:58:14;;;;;;;42.70;32.90;;;9.20;91.70;;;;;;5051980;28;20176;-92
2021/04/29 12:00:42;;;;;;;43.50;34.67;;;9.20;91.70;;;;;;5052262;28;20713;-91
2021/04/29 12:03:10;;;;;;;39.90;31.60;;;9.30;91.70;;;;;;5051494;28;20235;-91
2021/04/29 12:05:40;;;;;;;37.00;29.43;;;9.30;91.60;;;;;;5055572;28;20203;-91
2021/04/29 12:08:14;;;;;;;34.83;29.50;;;9.20;91.30;;;;;;5056642;28;20235;-91
2021/04/29 12:10:51;;;;;;;35.03;31.23;;;9.20;91.40;;;;;;5055364;28;20175;-91
2021/04/29 12:13:36;;;;;;;36.13;31.33;;;9.20;91.50;;;;;;5056498;28;20206;-91
2021/04/29 12:16:12;;;;;;;35.33;30.73;;;9.20;91.50;;;;;;5055408;28;20175;-91
2021/04/29 12:18:43;;;;;;;33.13;29.63;;;9.20;91.30;;;;;;5056526;28;20167;-91
2021/04/29 12:21:09;;;;;;;40.33;31.13;;;9.30;91.40;;;;;;5055187;28;20180;-90
2021/04/29 12:23:35;;;;;;;36.53;31.00;;;9.30;91.50;;;;;;5054999;28;20219;-91
2021/04/29 12:26:02;;;;;;;34.77;31.07;;;9.20;91.20;;;;;;5055107;28;20176;-91
2021/04/29 12:28:34;;;;;;;37.90;31.70;;;9.30;91.50;;;;;;5054903;28;20633;-91
2021/04/29 12:31:12;;;;;;;37.17;31.17;;;9.30;91.60;;;;;;5055147;28;20604;-91
2021/04/29 12:33:48;;;;;;;37.83;32.13;;;9.30;91.40;;;;;;5055091;28;20644;-91
2021/04/29 12:36:14;;;;;;;37.80;32.57;;;9.30;91.60;;;;;;5055038;28;20519;-91
2021/04/29 12:38:40;;;;;;;36.80;32.47;;;9.30;91.50;;;;;;5056117;28;20179;-91
2021/04/29 12:41:07;;;;;;;41.03;34.17;;;9.30;91.80;;;;;;5056285;28;20168;-91